sensor_id;sensor_type;location;lat;lon;timestamp;pressure;altitude;pressure_sealevel;temperature;humidity
74334;BME280;62753;40.394;-80.022;2023-07-31T00:01:31;97325.19;;;28.44;39.38
74334;BME280;62753;40.394;-80.022;2023-07-31T00:03:56;97322.49;;;27.93;39.39
74334;BME280;62753;40.394;-80.022;2023-07-31T00:06:22;97312.32;;;27.50;41.06
74334;BME280;62753;40.394;-80.022;2023-07-31T00:08:47;97314.31;;;27.37;41.39
74334;BME280;62753;40.394;-80.022;2023-07-31T00:11:14;97311.88;;;27.13;40.84
74334;BME280;62753;40.394;-80.022;2023-07-31T00:13:38;97314.63;;;26.96;41.80
74334;BME280;62753;40.394;-80.022;2023-07-31T00:16:04;97314.75;;;26.66;42.53
74334;BME280;62753;40.394;-80.022;2023-07-31T00:18:29;97314.32;;;26.84;42.44
74334;BME280;62753;40.394;-80.022;2023-07-31T00:20:54;97311.58;;;26.66;38.32
74334;BME280;62753;40.394;-80.022;2023-07-31T00:23:19;97310.91;;;28.31;37.47
74334;BME280;62753;40.394;-80.022;2023-07-31T00:25:45;97310.69;;;27.86;38.86
74334;BME280;62753;40.394;-80.022;2023-07-31T00:28:10;97314.06;;;27.62;39.25
74334;BME280;62753;40.394;-80.022;2023-07-31T00:30:36;97316.38;;;28.37;38.16
74334;BME280;62753;40.394;-80.022;2023-07-31T00:33:02;97318.86;;;29.03;37.85
74334;BME280;62753;40.394;-80.022;2023-07-31T00:35:26;97319.88;;;28.43;38.72
74334;BME280;62753;40.394;-80.022;2023-07-31T00:37:52;97322.26;;;29.23;37.87
74334;BME280;62753;40.394;-80.022;2023-07-31T00:40:17;97321.69;;;28.88;38.45
74334;BME280;62753;40.394;-80.022;2023-07-31T00:42:42;97320.58;;;29.28;37.25
74334;BME280;62753;40.394;-80.022;2023-07-31T00:45:09;97323.73;;;28.81;38.09
74334;BME280;62753;40.394;-80.022;2023-07-31T00:47:33;97324.55;;;28.92;37.23
74334;BME280;62753;40.394;-80.022;2023-07-31T00:49:58;97326.26;;;28.04;38.33
74334;BME280;62753;40.394;-80.022;2023-07-31T00:52:23;97330.31;;;28.66;37.85
74334;BME280;62753;40.394;-80.022;2023-07-31T00:54:51;97330.49;;;29.69;36.80
74334;BME280;62753;40.394;-80.022;2023-07-31T00:57:15;97328.99;;;28.54;38.36
74334;BME280;62753;40.394;-80.022;2023-07-31T00:59:40;97326.50;;;27.95;39.43
74334;BME280;62753;40.394;-80.022;2023-07-31T01:02:06;97324.59;;;27.69;39.60
74334;BME280;62753;40.394;-80.022;2023-07-31T01:04:30;97323.31;;;27.67;39.78
74334;BME280;62753;40.394;-80.022;2023-07-31T01:07:00;97332.03;;;28.42;38.55
74334;BME280;62753;40.394;-80.022;2023-07-31T01:09:28;97340.50;;;28.04;39.64
74334;BME280;62753;40.394;-80.022;2023-07-31T01:11:50;97342.75;;;27.75;39.75
74334;BME280;62753;40.394;-80.022;2023-07-31T01:14:13;97347.75;;;27.28;39.24
74334;BME280;62753;40.394;-80.022;2023-07-31T01:16:37;97351.75;;;28.15;38.74
74334;BME280;62753;40.394;-80.022;2023-07-31T01:19:02;97355.79;;;28.85;38.38
74334;BME280;62753;40.394;-80.022;2023-07-31T01:21:44;97358.56;;;29.27;37.22
74334;BME280;62753;40.394;-80.022;2023-07-31T01:26:22;97354.42;;;26.81;40.60
74334;BME280;62753;40.394;-80.022;2023-07-31T01:28:50;97350.91;;;28.06;39.14
74334;BME280;62753;40.394;-80.022;2023-07-31T01:31:14;97353.27;;;28.47;37.68
74334;BME280;62753;40.394;-80.022;2023-07-31T01:33:37;97360.30;;;28.04;38.85
74334;BME280;62753;40.394;-80.022;2023-07-31T01:36:02;97359.91;;;27.96;38.76
74334;BME280;62753;40.394;-80.022;2023-07-31T01:38:25;97356.96;;;28.80;37.74
74334;BME280;62753;40.394;-80.022;2023-07-31T01:40:52;97356.85;;;29.08;37.68
74334;BME280;62753;40.394;-80.022;2023-07-31T01:43:17;97359.04;;;28.39;38.46
74334;BME280;62753;40.394;-80.022;2023-07-31T01:45:42;97366.46;;;28.55;38.61
74334;BME280;62753;40.394;-80.022;2023-07-31T01:48:07;97376.22;;;27.53;40.16
74334;BME280;62753;40.394;-80.022;2023-07-31T01:50:32;97379.48;;;27.51;39.77
74334;BME280;62753;40.394;-80.022;2023-07-31T01:52:57;97386.84;;;27.53;40.20
74334;BME280;62753;40.394;-80.022;2023-07-31T01:55:23;97389.56;;;27.85;39.30
74334;BME280;62753;40.394;-80.022;2023-07-31T01:57:48;97390.27;;;28.55;38.14
74334;BME280;62753;40.394;-80.022;2023-07-31T02:00:13;97389.78;;;28.48;37.43
74334;BME280;62753;40.394;-80.022;2023-07-31T02:02:38;97389.01;;;28.51;38.04
74334;BME280;62753;40.394;-80.022;2023-07-31T02:05:05;97395.37;;;27.87;38.93
74334;BME280;62753;40.394;-80.022;2023-07-31T02:07:28;97389.93;;;28.77;37.73
74334;BME280;62753;40.394;-80.022;2023-07-31T02:09:54;97386.68;;;28.70;37.84
74334;BME280;62753;40.394;-80.022;2023-07-31T02:12:19;97377.08;;;28.38;37.63
74334;BME280;62753;40.394;-80.022;2023-07-31T02:14:45;97383.11;;;28.57;37.26
74334;BME280;62753;40.394;-80.022;2023-07-31T02:17:10;97386.38;;;28.29;38.53
74334;BME280;62753;40.394;-80.022;2023-07-31T02:19:35;97383.81;;;27.54;40.04
74334;BME280;62753;40.394;-80.022;2023-07-31T02:22:00;97389.50;;;28.43;38.61
74334;BME280;62753;40.394;-80.022;2023-07-31T02:24:25;97395.61;;;27.84;39.55
74334;BME280;62753;40.394;-80.022;2023-07-31T02:26:50;97395.58;;;27.54;39.65
74334;BME280;62753;40.394;-80.022;2023-07-31T02:29:15;97393.61;;;28.09;38.89
74334;BME280;62753;40.394;-80.022;2023-07-31T02:31:41;97395.04;;;28.05;39.11
74334;BME280;62753;40.394;-80.022;2023-07-31T02:34:06;97399.24;;;28.27;38.71
74334;BME280;62753;40.394;-80.022;2023-07-31T02:36:31;97397.20;;;28.81;37.55
74334;BME280;62753;40.394;-80.022;2023-07-31T02:38:57;97399.15;;;29.11;37.02
74334;BME280;62753;40.394;-80.022;2023-07-31T02:41:22;97393.48;;;28.28;38.82
74334;BME280;62753;40.394;-80.022;2023-07-31T02:43:48;97393.00;;;28.49;38.54
74334;BME280;62753;40.394;-80.022;2023-07-31T02:46:13;97392.41;;;28.74;37.84
74334;BME280;62753;40.394;-80.022;2023-07-31T02:48:38;97390.59;;;28.31;38.47
74334;BME280;62753;40.394;-80.022;2023-07-31T02:51:04;97385.98;;;28.38;38.13
74334;BME280;62753;40.394;-80.022;2023-07-31T02:53:29;97388.12;;;27.78;39.61
74334;BME280;62753;40.394;-80.022;2023-07-31T02:55:54;97383.38;;;28.15;38.53
74334;BME280;62753;40.394;-80.022;2023-07-31T02:58:20;97381.34;;;28.28;38.22
74334;BME280;62753;40.394;-80.022;2023-07-31T03:00:46;97378.39;;;28.75;37.86
74334;BME280;62753;40.394;-80.022;2023-07-31T03:03:10;97372.94;;;28.97;37.39
74334;BME280;62753;40.394;-80.022;2023-07-31T03:05:35;97366.66;;;27.72;38.62
74334;BME280;62753;40.394;-80.022;2023-07-31T03:08:01;97368.83;;;27.98;39.03
74334;BME280;62753;40.394;-80.022;2023-07-31T03:10:26;97372.10;;;27.95;38.72
74334;BME280;62753;40.394;-80.022;2023-07-31T03:12:51;97374.80;;;28.65;37.76
74334;BME280;62753;40.394;-80.022;2023-07-31T03:15:17;97378.77;;;28.61;38.15
74334;BME280;62753;40.394;-80.022;2023-07-31T03:17:41;97388.76;;;27.71;39.02
74334;BME280;62753;40.394;-80.022;2023-07-31T03:20:10;97392.21;;;27.51;39.59
74334;BME280;62753;40.394;-80.022;2023-07-31T03:22:32;97389.39;;;27.58;39.75
74334;BME280;62753;40.394;-80.022;2023-07-31T03:24:58;97393.90;;;25.94;42.53
74334;BME280;62753;40.394;-80.022;2023-07-31T03:27:23;97393.82;;;27.19;40.28
74334;BME280;62753;40.394;-80.022;2023-07-31T03:29:49;97394.34;;;27.03;40.18
74334;BME280;62753;40.394;-80.022;2023-07-31T03:32:14;97401.48;;;27.70;39.20
74334;BME280;62753;40.394;-80.022;2023-07-31T03:34:40;97401.15;;;27.71;39.61
74334;BME280;62753;40.394;-80.022;2023-07-31T03:37:06;97406.93;;;26.94;40.88
74334;BME280;62753;40.394;-80.022;2023-07-31T03:39:32;97401.56;;;27.92;38.71
74334;BME280;62753;40.394;-80.022;2023-07-31T03:41:56;97399.53;;;26.62;40.56
74334;BME280;62753;40.394;-80.022;2023-07-31T03:44:22;97399.70;;;27.14;40.44
74334;BME280;62753;40.394;-80.022;2023-07-31T03:46:48;97391.94;;;27.12;40.10
74334;BME280;62753;40.394;-80.022;2023-07-31T03:49:13;97390.85;;;26.39;41.58
74334;BME280;62753;40.394;-80.022;2023-07-31T03:51:38;97391.44;;;26.31;41.62
74334;BME280;62753;40.394;-80.022;2023-07-31T03:54:03;97398.79;;;27.09;40.83
74334;BME280;62753;40.394;-80.022;2023-07-31T03:56:28;97399.63;;;26.09;41.41
74334;BME280;62753;40.394;-80.022;2023-07-31T03:58:53;97402.17;;;26.87;40.68
74334;BME280;62753;40.394;-80.022;2023-07-31T04:01:20;97403.14;;;26.64;40.41
74334;BME280;62753;40.394;-80.022;2023-07-31T04:03:45;97401.60;;;27.34;39.73
74334;BME280;62753;40.394;-80.022;2023-07-31T04:06:10;97398.70;;;27.32;39.63
74334;BME280;62753;40.394;-80.022;2023-07-31T04:08:36;97400.52;;;27.77;39.12
74334;BME280;62753;40.394;-80.022;2023-07-31T04:11:00;97405.08;;;27.02;39.62
74334;BME280;62753;40.394;-80.022;2023-07-31T04:13:26;97408.77;;;27.04;39.52
74334;BME280;62753;40.394;-80.022;2023-07-31T04:15:52;97413.34;;;27.33;39.26
74334;BME280;62753;40.394;-80.022;2023-07-31T04:18:18;97416.06;;;27.26;39.17
74334;BME280;62753;40.394;-80.022;2023-07-31T04:20:43;97421.00;;;28.07;38.54
74334;BME280;62753;40.394;-80.022;2023-07-31T04:23:09;97421.94;;;27.90;37.97
74334;BME280;62753;40.394;-80.022;2023-07-31T04:25:34;97421.88;;;27.39;39.30
74334;BME280;62753;40.394;-80.022;2023-07-31T04:27:59;97421.38;;;28.15;38.57
74334;BME280;62753;40.394;-80.022;2023-07-31T04:30:26;97417.02;;;27.26;39.50
74334;BME280;62753;40.394;-80.022;2023-07-31T04:32:51;97414.02;;;26.26;41.48
74334;BME280;62753;40.394;-80.022;2023-07-31T04:35:16;97411.87;;;26.84;40.41
74334;BME280;62753;40.394;-80.022;2023-07-31T04:37:42;97412.91;;;26.93;40.34
74334;BME280;62753;40.394;-80.022;2023-07-31T04:40:08;97411.02;;;26.78;40.59
74334;BME280;62753;40.394;-80.022;2023-07-31T04:42:32;97411.99;;;27.17;39.68
74334;BME280;62753;40.394;-80.022;2023-07-31T04:44:58;97409.70;;;27.28;39.39
74334;BME280;62753;40.394;-80.022;2023-07-31T04:47:24;97411.52;;;26.75;39.41
74334;BME280;62753;40.394;-80.022;2023-07-31T04:49:49;97410.07;;;27.09;38.98
74334;BME280;62753;40.394;-80.022;2023-07-31T04:52:15;97406.29;;;27.64;38.08
74334;BME280;62753;40.394;-80.022;2023-07-31T04:54:41;97405.96;;;27.25;38.79
74334;BME280;62753;40.394;-80.022;2023-07-31T04:57:06;97405.94;;;26.79;40.07
74334;BME280;62753;40.394;-80.022;2023-07-31T04:59:31;97406.36;;;26.18;41.25
74334;BME280;62753;40.394;-80.022;2023-07-31T05:01:57;97408.43;;;26.32;40.17
74334;BME280;62753;40.394;-80.022;2023-07-31T05:04:23;97408.27;;;27.43;38.67
74334;BME280;62753;40.394;-80.022;2023-07-31T05:06:49;97409.74;;;26.72;39.92
74334;BME280;62753;40.394;-80.022;2023-07-31T05:09:14;97405.05;;;27.45;38.91
74334;BME280;62753;40.394;-80.022;2023-07-31T05:11:39;97408.72;;;26.93;39.45
74334;BME280;62753;40.394;-80.022;2023-07-31T05:14:04;97404.91;;;26.71;39.43
74334;BME280;62753;40.394;-80.022;2023-07-31T05:16:29;97407.05;;;26.34;39.80
74334;BME280;62753;40.394;-80.022;2023-07-31T05:18:55;97403.02;;;26.35;40.98
74334;BME280;62753;40.394;-80.022;2023-07-31T05:21:21;97403.91;;;26.58;39.90
74334;BME280;62753;40.394;-80.022;2023-07-31T05:23:46;97401.77;;;26.59;40.13
74334;BME280;62753;40.394;-80.022;2023-07-31T05:26:11;97399.37;;;26.30;40.65
74334;BME280;62753;40.394;-80.022;2023-07-31T05:28:38;97402.98;;;25.55;42.15
74334;BME280;62753;40.394;-80.022;2023-07-31T05:31:04;97401.31;;;26.01;40.96
74334;BME280;62753;40.394;-80.022;2023-07-31T05:33:28;97404.19;;;25.96;40.67
74334;BME280;62753;40.394;-80.022;2023-07-31T05:35:53;97403.21;;;26.28;40.35
74334;BME280;62753;40.394;-80.022;2023-07-31T05:38:19;97401.45;;;26.34;40.65
74334;BME280;62753;40.394;-80.022;2023-07-31T05:40:44;97401.44;;;25.92;40.69
74334;BME280;62753;40.394;-80.022;2023-07-31T05:43:10;97403.42;;;25.83;40.73
74334;BME280;62753;40.394;-80.022;2023-07-31T05:45:35;97404.41;;;26.06;40.65
74334;BME280;62753;40.394;-80.022;2023-07-31T05:48:01;97402.75;;;26.03;41.00
74334;BME280;62753;40.394;-80.022;2023-07-31T05:50:26;97405.25;;;26.44;40.47
74334;BME280;62753;40.394;-80.022;2023-07-31T05:52:51;97399.54;;;25.98;40.49
74334;BME280;62753;40.394;-80.022;2023-07-31T05:55:16;97401.05;;;26.75;40.35
74334;BME280;62753;40.394;-80.022;2023-07-31T05:57:42;97394.74;;;26.61;39.99
74334;BME280;62753;40.394;-80.022;2023-07-31T06:00:08;97390.08;;;26.18;40.20
74334;BME280;62753;40.394;-80.022;2023-07-31T06:02:32;97391.09;;;25.14;42.14
74334;BME280;62753;40.394;-80.022;2023-07-31T06:04:57;97388.00;;;26.42;40.39
74334;BME280;62753;40.394;-80.022;2023-07-31T06:07:22;97382.64;;;25.43;42.06
74334;BME280;62753;40.394;-80.022;2023-07-31T06:09:48;97382.93;;;25.90;41.38
74334;BME280;62753;40.394;-80.022;2023-07-31T06:12:14;97384.90;;;26.30;40.87
74334;BME280;62753;40.394;-80.022;2023-07-31T06:14:39;97384.82;;;26.61;40.27
74334;BME280;62753;40.394;-80.022;2023-07-31T06:17:04;97377.59;;;25.65;41.28
74334;BME280;62753;40.394;-80.022;2023-07-31T06:19:30;97378.50;;;25.66;41.79
74334;BME280;62753;40.394;-80.022;2023-07-31T06:21:55;97375.90;;;25.98;40.92
74334;BME280;62753;40.394;-80.022;2023-07-31T06:24:20;97370.95;;;25.65;41.04
74334;BME280;62753;40.394;-80.022;2023-07-31T06:26:46;97371.37;;;26.23;40.34
74334;BME280;62753;40.394;-80.022;2023-07-31T06:29:11;97374.91;;;25.54;41.82
74334;BME280;62753;40.394;-80.022;2023-07-31T06:31:37;97376.15;;;25.85;40.71
74334;BME280;62753;40.394;-80.022;2023-07-31T06:34:02;97376.63;;;25.55;41.82
74334;BME280;62753;40.394;-80.022;2023-07-31T06:36:28;97373.71;;;25.92;40.57
74334;BME280;62753;40.394;-80.022;2023-07-31T06:38:53;97374.58;;;25.48;41.08
74334;BME280;62753;40.394;-80.022;2023-07-31T06:41:18;97377.70;;;25.78;40.16
74334;BME280;62753;40.394;-80.022;2023-07-31T06:43:44;97388.18;;;25.16;41.11
74334;BME280;62753;40.394;-80.022;2023-07-31T06:46:09;97380.30;;;25.59;40.67
74334;BME280;62753;40.394;-80.022;2023-07-31T06:48:34;97384.04;;;25.44;40.72
74334;BME280;62753;40.394;-80.022;2023-07-31T06:51:00;97390.43;;;26.12;40.02
74334;BME280;62753;40.394;-80.022;2023-07-31T06:53:25;97395.23;;;26.05;40.07
74334;BME280;62753;40.394;-80.022;2023-07-31T06:55:51;97392.46;;;26.16;39.37
74334;BME280;62753;40.394;-80.022;2023-07-31T06:58:16;97391.99;;;25.86;39.78
74334;BME280;62753;40.394;-80.022;2023-07-31T07:00:42;97395.96;;;26.13;39.20
74334;BME280;62753;40.394;-80.022;2023-07-31T07:03:06;97393.71;;;25.53;40.08
74334;BME280;62753;40.394;-80.022;2023-07-31T07:05:32;97391.15;;;25.58;40.30
74334;BME280;62753;40.394;-80.022;2023-07-31T07:07:57;97391.62;;;25.37;40.38
74334;BME280;62753;40.394;-80.022;2023-07-31T07:10:22;97383.15;;;25.59;40.68
74334;BME280;62753;40.394;-80.022;2023-07-31T07:12:48;97386.16;;;25.63;40.16
74334;BME280;62753;40.394;-80.022;2023-07-31T07:15:13;97384.56;;;26.37;39.78
74334;BME280;62753;40.394;-80.022;2023-07-31T07:17:39;97382.25;;;25.95;39.52
74334;BME280;62753;40.394;-80.022;2023-07-31T07:20:04;97382.09;;;25.61;40.17
74334;BME280;62753;40.394;-80.022;2023-07-31T07:22:29;97383.61;;;25.07;40.96
74334;BME280;62753;40.394;-80.022;2023-07-31T07:24:54;97382.72;;;25.54;40.59
74334;BME280;62753;40.394;-80.022;2023-07-31T07:27:20;97380.53;;;25.40;40.83
74334;BME280;62753;40.394;-80.022;2023-07-31T07:29:46;97380.11;;;25.95;39.86
74334;BME280;62753;40.394;-80.022;2023-07-31T07:32:11;97382.70;;;26.13;39.28
74334;BME280;62753;40.394;-80.022;2023-07-31T07:34:37;97380.76;;;25.97;39.22
74334;BME280;62753;40.394;-80.022;2023-07-31T07:37:03;97381.94;;;25.59;40.36
74334;BME280;62753;40.394;-80.022;2023-07-31T07:39:28;97383.62;;;25.50;40.72
74334;BME280;62753;40.394;-80.022;2023-07-31T07:41:53;97383.94;;;25.44;40.70
74334;BME280;62753;40.394;-80.022;2023-07-31T07:44:19;97384.79;;;25.04;41.62
74334;BME280;62753;40.394;-80.022;2023-07-31T07:46:45;97378.06;;;26.06;39.73
74334;BME280;62753;40.394;-80.022;2023-07-31T07:49:10;97374.31;;;26.05;39.18
74334;BME280;62753;40.394;-80.022;2023-07-31T07:51:36;97380.80;;;25.39;40.41
74334;BME280;62753;40.394;-80.022;2023-07-31T07:54:02;97374.18;;;25.66;40.05
74334;BME280;62753;40.394;-80.022;2023-07-31T07:56:27;97378.61;;;25.02;40.65
74334;BME280;62753;40.394;-80.022;2023-07-31T07:58:53;97382.52;;;25.44;40.26
74334;BME280;62753;40.394;-80.022;2023-07-31T08:01:18;97384.64;;;24.89;40.66
74334;BME280;62753;40.394;-80.022;2023-07-31T08:03:44;97382.32;;;25.06;40.12
74334;BME280;62753;40.394;-80.022;2023-07-31T08:06:11;97384.03;;;25.48;40.62
74334;BME280;62753;40.394;-80.022;2023-07-31T08:08:36;97383.25;;;25.06;40.37
74334;BME280;62753;40.394;-80.022;2023-07-31T08:11:01;97383.60;;;25.70;40.33
74334;BME280;62753;40.394;-80.022;2023-07-31T08:13:26;97374.12;;;25.68;39.98
74334;BME280;62753;40.394;-80.022;2023-07-31T08:15:51;97376.82;;;25.61;40.08
74334;BME280;62753;40.394;-80.022;2023-07-31T08:18:17;97377.56;;;25.07;40.81
74334;BME280;62753;40.394;-80.022;2023-07-31T08:20:42;97378.73;;;24.53;41.54
74334;BME280;62753;40.394;-80.022;2023-07-31T08:23:07;97381.22;;;25.09;40.54
74334;BME280;62753;40.394;-80.022;2023-07-31T08:25:35;97383.99;;;25.14;40.07
74334;BME280;62753;40.394;-80.022;2023-07-31T08:27:58;97390.71;;;24.32;41.39
74334;BME280;62753;40.394;-80.022;2023-07-31T08:30:24;97393.07;;;25.29;39.82
74334;BME280;62753;40.394;-80.022;2023-07-31T08:32:49;97392.05;;;24.10;41.46
74334;BME280;62753;40.394;-80.022;2023-07-31T08:35:15;97390.75;;;25.30;39.90
74334;BME280;62753;40.394;-80.022;2023-07-31T08:37:39;97395.05;;;24.07;41.66
74334;BME280;62753;40.394;-80.022;2023-07-31T08:40:06;97394.12;;;23.59;42.50
74334;BME280;62753;40.394;-80.022;2023-07-31T08:42:30;97394.81;;;25.18;40.11
74334;BME280;62753;40.394;-80.022;2023-07-31T08:44:56;97396.25;;;23.88;41.79
74334;BME280;62753;40.394;-80.022;2023-07-31T08:47:22;97397.46;;;24.76;41.52
74334;BME280;62753;40.394;-80.022;2023-07-31T08:49:48;97393.39;;;23.91;42.07
74334;BME280;62753;40.394;-80.022;2023-07-31T08:52:12;97393.58;;;25.24;40.60
74334;BME280;62753;40.394;-80.022;2023-07-31T08:54:37;97393.65;;;24.66;41.30
74334;BME280;62753;40.394;-80.022;2023-07-31T08:57:04;97394.47;;;24.51;41.17
74334;BME280;62753;40.394;-80.022;2023-07-31T08:59:29;97395.98;;;25.09;40.66
74334;BME280;62753;40.394;-80.022;2023-07-31T09:01:54;97395.60;;;24.67;40.54
74334;BME280;62753;40.394;-80.022;2023-07-31T09:04:20;97397.61;;;24.90;40.12
74334;BME280;62753;40.394;-80.022;2023-07-31T09:06:45;97399.89;;;25.17;40.21
74334;BME280;62753;40.394;-80.022;2023-07-31T09:09:10;97407.03;;;24.50;40.33
74334;BME280;62753;40.394;-80.022;2023-07-31T09:11:36;97414.46;;;25.02;40.10
74334;BME280;62753;40.394;-80.022;2023-07-31T09:14:01;97415.81;;;25.44;39.60
74334;BME280;62753;40.394;-80.022;2023-07-31T09:16:28;97419.75;;;25.15;39.87
74334;BME280;62753;40.394;-80.022;2023-07-31T09:18:54;97423.39;;;24.18;40.58
74334;BME280;62753;40.394;-80.022;2023-07-31T09:21:18;97429.03;;;25.23;39.89
74334;BME280;62753;40.394;-80.022;2023-07-31T09:23:44;97429.28;;;25.35;39.47
74334;BME280;62753;40.394;-80.022;2023-07-31T09:26:09;97433.36;;;24.80;39.56
74334;BME280;62753;40.394;-80.022;2023-07-31T09:28:35;97431.06;;;23.78;41.05
74334;BME280;62753;40.394;-80.022;2023-07-31T09:31:00;97434.75;;;24.92;39.78
74334;BME280;62753;40.394;-80.022;2023-07-31T09:33:25;97435.17;;;24.73;39.71
74334;BME280;62753;40.394;-80.022;2023-07-31T09:35:50;97436.15;;;25.68;38.67
74334;BME280;62753;40.394;-80.022;2023-07-31T09:38:16;97443.10;;;25.23;39.60
74334;BME280;62753;40.394;-80.022;2023-07-31T09:40:42;97448.17;;;24.97;39.55
74334;BME280;62753;40.394;-80.022;2023-07-31T09:43:07;97449.23;;;24.23;40.72
74334;BME280;62753;40.394;-80.022;2023-07-31T09:45:34;97454.82;;;24.45;40.16
74334;BME280;62753;40.394;-80.022;2023-07-31T09:47:57;97459.47;;;24.58;40.47
74334;BME280;62753;40.394;-80.022;2023-07-31T09:50:24;97466.90;;;24.40;40.36
74334;BME280;62753;40.394;-80.022;2023-07-31T09:52:48;97470.11;;;24.71;39.64
74334;BME280;62753;40.394;-80.022;2023-07-31T09:55:13;97471.52;;;24.37;40.36
74334;BME280;62753;40.394;-80.022;2023-07-31T09:57:40;97473.67;;;24.43;40.36
74334;BME280;62753;40.394;-80.022;2023-07-31T10:00:06;97474.81;;;23.71;41.12
74334;BME280;62753;40.394;-80.022;2023-07-31T10:02:30;97477.27;;;23.62;41.36
74334;BME280;62753;40.394;-80.022;2023-07-31T10:04:57;97484.81;;;23.87;40.48
74334;BME280;62753;40.394;-80.022;2023-07-31T10:07:22;97488.15;;;25.03;39.04
74334;BME280;62753;40.394;-80.022;2023-07-31T10:09:46;97492.12;;;23.94;40.26
74334;BME280;62753;40.394;-80.022;2023-07-31T10:12:12;97494.66;;;24.05;40.14
74334;BME280;62753;40.394;-80.022;2023-07-31T10:14:38;97493.90;;;24.03;39.42
74334;BME280;62753;40.394;-80.022;2023-07-31T10:17:03;97490.35;;;24.70;38.83
74334;BME280;62753;40.394;-80.022;2023-07-31T10:19:28;97491.67;;;24.29;39.82
74334;BME280;62753;40.394;-80.022;2023-07-31T10:21:53;97497.75;;;23.31;41.32
74334;BME280;62753;40.394;-80.022;2023-07-31T10:24:18;97498.09;;;23.75;40.65
74334;BME280;62753;40.394;-80.022;2023-07-31T10:26:45;97497.12;;;23.90;40.00
74334;BME280;62753;40.394;-80.022;2023-07-31T10:29:10;97498.91;;;24.40;39.29
74334;BME280;62753;40.394;-80.022;2023-07-31T10:31:36;97500.52;;;24.76;38.70
74334;BME280;62753;40.394;-80.022;2023-07-31T10:34:01;97502.96;;;24.34;38.97
74334;BME280;62753;40.394;-80.022;2023-07-31T10:36:26;97504.31;;;24.91;38.88
74334;BME280;62753;40.394;-80.022;2023-07-31T10:38:52;97503.96;;;24.36;38.85
74334;BME280;62753;40.394;-80.022;2023-07-31T10:41:16;97505.24;;;24.03;39.97
74334;BME280;62753;40.394;-80.022;2023-07-31T10:43:42;97506.08;;;23.44;40.90
74334;BME280;62753;40.394;-80.022;2023-07-31T10:46:12;97505.80;;;24.17;40.31
74334;BME280;62753;40.394;-80.022;2023-07-31T10:48:34;97504.85;;;24.09;40.32
74334;BME280;62753;40.394;-80.022;2023-07-31T10:50:58;97503.61;;;23.86;40.35
74334;BME280;62753;40.394;-80.022;2023-07-31T10:53:24;97501.16;;;24.33;39.47
74334;BME280;62753;40.394;-80.022;2023-07-31T10:55:49;97502.57;;;23.23;41.09
74334;BME280;62753;40.394;-80.022;2023-07-31T10:58:14;97503.24;;;23.29;41.13
74334;BME280;62753;40.394;-80.022;2023-07-31T11:00:40;97509.62;;;24.53;39.20
74334;BME280;62753;40.394;-80.022;2023-07-31T11:03:06;97517.51;;;24.49;40.19
74334;BME280;62753;40.394;-80.022;2023-07-31T11:05:41;97520.79;;;24.19;40.25
74334;BME280;62753;40.394;-80.022;2023-07-31T11:07:56;97521.32;;;24.31;40.57
74334;BME280;62753;40.394;-80.022;2023-07-31T11:10:23;97527.60;;;23.27;42.54
74334;BME280;62753;40.394;-80.022;2023-07-31T11:12:46;97533.92;;;23.82;40.85
74334;BME280;62753;40.394;-80.022;2023-07-31T11:15:12;97538.84;;;23.49;41.93
74334;BME280;62753;40.394;-80.022;2023-07-31T11:17:38;97538.20;;;23.64;42.02
74334;BME280;62753;40.394;-80.022;2023-07-31T11:20:03;97537.43;;;23.66;41.89
74334;BME280;62753;40.394;-80.022;2023-07-31T11:22:28;97536.69;;;23.92;40.94
74334;BME280;62753;40.394;-80.022;2023-07-31T11:24:53;97536.43;;;22.67;43.07
74334;BME280;62753;40.394;-80.022;2023-07-31T11:27:19;97535.74;;;23.21;42.30
74334;BME280;62753;40.394;-80.022;2023-07-31T11:29:44;97542.10;;;23.73;41.91
74334;BME280;62753;40.394;-80.022;2023-07-31T11:32:15;97544.08;;;22.77;43.60
74334;BME280;62753;40.394;-80.022;2023-07-31T11:37:00;97546.66;;;22.56;44.05
74334;BME280;62753;40.394;-80.022;2023-07-31T11:39:25;97548.37;;;23.89;42.08
74334;BME280;62753;40.394;-80.022;2023-07-31T11:41:51;97549.47;;;23.06;43.17
74334;BME280;62753;40.394;-80.022;2023-07-31T11:44:17;97556.11;;;23.99;41.44
74334;BME280;62753;40.394;-80.022;2023-07-31T11:46:42;97556.66;;;23.39;43.02
74334;BME280;62753;40.394;-80.022;2023-07-31T11:49:09;97557.64;;;23.46;42.71
74334;BME280;62753;40.394;-80.022;2023-07-31T11:51:33;97559.53;;;23.98;41.22
74334;BME280;62753;40.394;-80.022;2023-07-31T11:54:01;97562.73;;;23.67;41.20
74334;BME280;62753;40.394;-80.022;2023-07-31T11:56:25;97563.67;;;23.31;41.97
74334;BME280;62753;40.394;-80.022;2023-07-31T11:58:53;97566.40;;;22.33;43.45
74334;BME280;62753;40.394;-80.022;2023-07-31T12:01:16;97566.40;;;23.92;41.43
74334;BME280;62753;40.394;-80.022;2023-07-31T12:03:40;97570.28;;;22.71;43.54
74334;BME280;62753;40.394;-80.022;2023-07-31T12:06:06;97578.68;;;23.74;41.25
74334;BME280;62753;40.394;-80.022;2023-07-31T12:08:32;97581.13;;;23.84;41.07
74334;BME280;62753;40.394;-80.022;2023-07-31T12:11:03;97580.98;;;24.25;39.87
74334;BME280;62753;40.394;-80.022;2023-07-31T12:13:24;97584.31;;;24.25;40.58
74334;BME280;62753;40.394;-80.022;2023-07-31T12:15:48;97588.54;;;23.69;40.85
74334;BME280;62753;40.394;-80.022;2023-07-31T12:18:15;97589.58;;;23.35;41.34
74334;BME280;62753;40.394;-80.022;2023-07-31T12:20:44;97593.05;;;24.32;39.67
74334;BME280;62753;40.394;-80.022;2023-07-31T12:23:04;97594.70;;;23.96;39.93
74334;BME280;62753;40.394;-80.022;2023-07-31T12:25:30;97596.90;;;23.95;39.45
74334;BME280;62753;40.394;-80.022;2023-07-31T12:27:54;97599.29;;;23.85;40.26
74334;BME280;62753;40.394;-80.022;2023-07-31T12:30:29;97599.36;;;24.86;38.89
74334;BME280;62753;40.394;-80.022;2023-07-31T12:32:46;97601.24;;;24.49;40.08
74334;BME280;62753;40.394;-80.022;2023-07-31T12:35:11;97602.48;;;25.50;36.50